Terminal Aerodrome Forecast
Issued by NWS

Current Version | Previous Version | Text Only | Print | Product List | Glossary On
Versions: 1 2 3 4 5 6 7 8 9 10 11 12
490
FTUS45 KRIW 261136
TAFWRL
TAF
KWRL 261136Z 2612/2712 VRB06KT P6SM SCT080 BKN110
     FM261800 35008KT 6SM -SHRA SCT015 OVC040
     FM262300 32006KT P6SM VCSH SCT040 BKN070=

USA.gov is the U.S. government's official web portal to all federal, state and local government web resources and services.